createdAt,value
2022-11-20T00:00:26.108Z,1004.34
2022-11-20T00:01:26.077Z,1004.38
2022-11-20T00:02:26.092Z,1004.38
2022-11-20T00:03:26.048Z,1004.38
2022-11-20T00:04:26.037Z,1004.37
2022-11-20T00:05:26.019Z,1004.42
2022-11-20T00:06:26.037Z,1004.37
2022-11-20T00:07:26.049Z,1004.36
2022-11-20T00:08:26.012Z,1004.36
2022-11-20T00:09:25.993Z,1004.37
2022-11-20T00:10:25.992Z,1004.36
2022-11-20T00:11:25.988Z,1004.34
2022-11-20T00:12:25.946Z,1004.29
2022-11-20T00:13:25.965Z,1004.32
2022-11-20T00:14:25.952Z,1004.29
2022-11-20T00:15:25.931Z,1004.27
2022-11-20T00:16:25.936Z,1004.29
2022-11-20T00:17:25.916Z,1004.27
2022-11-20T00:18:25.892Z,1004.29
2022-11-20T00:19:25.880Z,1004.29
2022-11-20T00:20:25.866Z,1004.25
2022-11-20T00:21:25.869Z,1004.28
2022-11-20T00:22:25.869Z,1004.30
2022-11-20T00:23:25.852Z,1004.29
2022-11-20T00:24:25.825Z,1004.35
2022-11-20T00:25:25.830Z,1004.31
2022-11-20T00:26:25.814Z,1004.32
2022-11-20T00:27:25.821Z,1004.34
2022-11-20T00:28:25.796Z,1004.32
2022-11-20T00:29:25.792Z,1004.33
2022-11-20T00:30:25.796Z,1004.32
2022-11-20T00:31:25.767Z,1004.29
2022-11-20T00:32:25.756Z,1004.29
2022-11-20T00:33:25.755Z,1004.35
2022-11-20T00:34:25.750Z,1004.35
2022-11-20T00:35:25.729Z,1004.37
2022-11-20T00:36:25.764Z,1004.37
2022-11-20T00:37:25.697Z,1004.31
2022-11-20T00:38:25.706Z,1004.32
2022-11-20T00:39:25.697Z,1004.34
2022-11-20T00:40:25.675Z,1004.32
2022-11-20T00:41:25.691Z,1004.30
2022-11-20T00:42:25.633Z,1004.35
2022-11-20T00:43:25.666Z,1004.36
2022-11-20T00:44:25.641Z,1004.29
2022-11-20T00:45:25.625Z,1004.29
2022-11-20T00:46:25.632Z,1004.28
2022-11-20T00:47:25.581Z,1004.26
2022-11-20T00:48:25.604Z,1004.31
2022-11-20T00:49:25.580Z,1004.36
2022-11-20T00:50:25.563Z,1004.31
2022-11-20T00:51:25.573Z,1004.33
2022-11-20T00:52:25.554Z,1004.31
2022-11-20T00:53:25.555Z,1004.33
2022-11-20T00:54:25.519Z,1004.32
2022-11-20T00:55:25.513Z,1004.29
2022-11-20T00:56:25.495Z,1004.29
2022-11-20T00:57:25.485Z,1004.30
2022-11-20T00:58:25.509Z,1004.29
2022-11-20T00:59:25.487Z,1004.29
2022-11-20T01:00:25.449Z,1004.30
2022-11-20T01:01:25.657Z,1004.30
2022-11-20T01:02:25.456Z,1004.30
2022-11-20T01:03:27.164Z,1004.30
2022-11-20T01:04:25.411Z,1004.28
2022-11-20T01:05:25.441Z,1004.27
2022-11-20T01:06:25.405Z,1004.29
2022-11-20T01:07:25.446Z,1004.27
2022-11-20T01:08:25.394Z,1004.24
2022-11-20T01:09:25.363Z,1004.25
2022-11-20T01:10:25.371Z,1004.23
2022-11-20T01:11:25.350Z,1004.23
2022-11-20T01:12:25.331Z,1004.28
2022-11-20T01:13:25.871Z,1004.27
2022-11-20T01:14:25.349Z,1004.22
2022-11-20T01:15:25.308Z,1004.25
2022-11-20T01:16:25.313Z,1004.22
2022-11-20T01:17:25.296Z,1004.24
2022-11-20T01:18:25.270Z,1004.25
2022-11-20T01:19:25.522Z,1004.18
2022-11-20T01:20:25.292Z,1004.15
2022-11-20T01:21:25.238Z,1004.11
2022-11-20T01:22:25.250Z,1004.11
2022-11-20T01:23:25.233Z,1004.08
2022-11-20T01:24:25.232Z,1004.06
2022-11-20T01:25:25.226Z,1004.05
2022-11-20T01:26:25.225Z,1004.06
2022-11-20T01:27:25.181Z,1004.02
2022-11-20T01:28:25.183Z,1004.07
2022-11-20T01:29:25.396Z,1003.98
2022-11-20T01:30:25.145Z,1003.98
2022-11-20T01:31:25.149Z,1004.00
2022-11-20T01:32:25.126Z,1004.03
2022-11-20T01:33:25.120Z,1004.02
2022-11-20T01:34:25.113Z,1004.03
2022-11-20T01:35:25.118Z,1004.02
2022-11-20T01:36:25.119Z,1003.99
2022-11-20T01:37:25.097Z,1004.00
2022-11-20T01:38:25.065Z,1004.03
2022-11-20T01:39:25.423Z,1004.05
2022-11-20T01:40:25.065Z,1004.05
2022-11-20T01:41:25.059Z,1004.09
2022-11-20T01:42:25.028Z,1004.12
2022-11-20T01:43:25.032Z,1004.09
2022-11-20T01:44:25.021Z,1004.15
2022-11-20T01:45:25.019Z,1004.14
2022-11-20T01:46:24.991Z,1004.14
2022-11-20T01:47:24.987Z,1004.10
2022-11-20T01:48:24.994Z,1004.08
2022-11-20T01:49:24.966Z,1004.04
2022-11-20T01:50:24.966Z,1004.03
2022-11-20T01:51:24.935Z,1004.05
2022-11-20T01:52:24.931Z,1004.09
2022-11-20T01:53:24.924Z,1004.10
2022-11-20T01:54:24.923Z,1004.10
2022-11-20T01:55:24.887Z,1004.09
2022-11-20T01:56:24.882Z,1004.12
2022-11-20T01:57:24.889Z,1004.10
2022-11-20T01:58:24.864Z,1004.05
2022-11-20T01:59:24.876Z,1004.06
2022-11-20T02:00:24.871Z,1004.07
2022-11-20T02:01:24.862Z,1004.12
2022-11-20T02:02:24.827Z,1004.10
2022-11-20T02:03:24.829Z,1004.07
2022-11-20T02:04:24.805Z,1004.08
2022-11-20T02:05:24.834Z,1004.09
2022-11-20T02:06:24.813Z,1004.11
2022-11-20T02:07:24.830Z,1004.08
2022-11-20T02:08:24.761Z,1004.05
2022-11-20T02:09:24.746Z,1004.05
2022-11-20T02:10:24.753Z,1004.11
2022-11-20T02:11:24.742Z,1004.11
2022-11-20T02:12:24.723Z,1004.14
2022-11-20T02:13:24.710Z,1004.13
2022-11-20T02:14:24.711Z,1004.13
2022-11-20T02:15:29.997Z,1004.11
2022-11-20T02:16:24.689Z,1004.13
2022-11-20T02:17:24.698Z,1004.17
2022-11-20T02:18:24.684Z,1004.18
2022-11-20T02:19:24.673Z,1004.19
2022-11-20T02:20:24.674Z,1004.14
2022-11-20T02:21:24.627Z,1004.11
2022-11-20T02:22:24.648Z,1004.15
2022-11-20T02:23:24.631Z,1004.10
2022-11-20T02:24:24.620Z,1004.08
2022-11-20T02:25:24.600Z,1004.15
2022-11-20T02:26:24.607Z,1004.17
2022-11-20T02:27:24.581Z,1004.17
2022-11-20T02:28:24.560Z,1004.15
2022-11-20T02:29:24.568Z,1004.13
2022-11-20T02:30:24.577Z,1004.11
2022-11-20T02:31:24.538Z,1004.06
2022-11-20T02:32:24.516Z,1004.09
2022-11-20T02:33:24.529Z,1004.04
2022-11-20T02:34:24.533Z,1004.01
2022-11-20T02:35:24.480Z,1004.01
2022-11-20T02:36:24.473Z,1003.93
2022-11-20T02:37:24.466Z,1003.85
2022-11-20T02:38:24.498Z,1003.87
2022-11-20T02:39:24.442Z,1003.87
2022-11-20T02:40:24.435Z,1003.87
2022-11-20T02:41:24.415Z,1003.88
2022-11-20T02:42:24.423Z,1003.87
2022-11-20T02:43:24.414Z,1003.85
2022-11-20T02:44:24.423Z,1003.90
2022-11-20T02:45:24.401Z,1003.90
2022-11-20T02:46:24.390Z,1003.93
2022-11-20T02:47:24.378Z,1003.95
2022-11-20T02:48:25.336Z,1003.97
2022-11-20T02:49:24.589Z,1003.94
2022-11-20T02:50:24.356Z,1003.94
2022-11-20T02:51:24.344Z,1003.95
2022-11-20T02:52:24.305Z,1003.95
2022-11-20T02:53:24.328Z,1003.96
2022-11-20T02:54:24.318Z,1003.97
2022-11-20T02:55:24.279Z,1003.98
2022-11-20T02:56:24.285Z,1003.94
2022-11-20T02:57:24.280Z,1003.90
2022-11-20T02:58:24.270Z,1003.84
2022-11-20T02:59:24.381Z,1003.83
2022-11-20T03:00:24.223Z,1003.78
2022-11-20T03:01:24.249Z,1003.76
2022-11-20T03:02:24.234Z,1003.71
2022-11-20T03:03:24.220Z,1003.67
2022-11-20T03:04:24.203Z,1003.69
2022-11-20T03:05:24.206Z,1003.63
2022-11-20T03:06:24.173Z,1003.60
2022-11-20T03:07:24.210Z,1003.56
2022-11-20T03:08:24.145Z,1003.51
2022-11-20T03:09:24.253Z,1003.52
2022-11-20T03:10:24.124Z,1003.55
2022-11-20T03:11:24.113Z,1003.57
2022-11-20T03:12:24.105Z,1003.58
2022-11-20T03:13:24.103Z,1003.61
2022-11-20T03:14:24.085Z,1003.64
2022-11-20T03:15:24.082Z,1003.68
2022-11-20T03:16:24.063Z,1003.71
2022-11-20T03:17:24.067Z,1003.74
2022-11-20T03:18:24.048Z,1003.72
2022-11-20T03:19:24.201Z,1003.71
2022-11-20T03:20:24.026Z,1003.71
2022-11-20T03:21:24.017Z,1003.72
2022-11-20T03:22:24.030Z,1003.75
2022-11-20T03:23:23.993Z,1003.68
2022-11-20T03:24:24.020Z,1003.65
2022-11-20T03:25:23.989Z,1003.68
2022-11-20T03:26:23.961Z,1003.72
2022-11-20T03:27:23.972Z,1003.68
2022-11-20T03:28:23.938Z,1003.77
2022-11-20T03:29:23.953Z,1003.78
2022-11-20T03:30:27.606Z,1003.76
2022-11-20T03:31:23.934Z,1003.76
2022-11-20T03:32:23.902Z,1003.76
2022-11-20T03:33:23.902Z,1003.80
2022-11-20T03:34:23.890Z,1003.77
2022-11-20T03:35:23.876Z,1003.80
2022-11-20T03:36:23.873Z,1003.80
2022-11-20T03:37:23.856Z,1003.77
2022-11-20T03:38:23.845Z,1003.74
2022-11-20T03:39:24.175Z,1003.76
2022-11-20T03:40:23.828Z,1003.72
2022-11-20T03:41:23.831Z,1003.72
2022-11-20T03:42:23.800Z,1003.74
2022-11-20T03:43:23.799Z,1003.76
2022-11-20T03:44:23.789Z,1003.77
2022-11-20T03:45:23.796Z,1003.78
2022-11-20T03:46:23.776Z,1003.75
2022-11-20T03:47:23.751Z,1003.71
2022-11-20T03:48:23.759Z,1003.73
2022-11-20T03:49:23.933Z,1003.72
2022-11-20T03:50:23.735Z,1003.73
2022-11-20T03:51:23.700Z,1003.74
2022-11-20T03:52:23.702Z,1003.73
2022-11-20T03:53:23.680Z,1003.68
2022-11-20T03:54:23.693Z,1003.71
2022-11-20T03:55:23.673Z,1003.73
2022-11-20T03:56:23.648Z,1003.71
2022-11-20T03:57:23.640Z,1003.66
2022-11-20T03:58:23.627Z,1003.62
2022-11-20T03:59:23.822Z,1003.61
2022-11-20T04:00:23.628Z,1003.57
2022-11-20T04:01:23.710Z,1003.54
2022-11-20T04:02:23.593Z,1003.51
2022-11-20T04:03:23.619Z,1003.48
2022-11-20T04:04:23.598Z,1003.50
2022-11-20T04:05:23.578Z,1003.51
2022-11-20T04:06:23.573Z,1003.52
2022-11-20T04:07:23.609Z,1003.50
2022-11-20T04:08:23.555Z,1003.46
2022-11-20T04:09:23.868Z,1003.43
2022-11-20T04:10:23.532Z,1003.45
2022-11-20T04:11:23.527Z,1003.45
2022-11-20T04:12:23.518Z,1003.46
2022-11-20T04:13:23.485Z,1003.47
2022-11-20T04:14:23.478Z,1003.51
2022-11-20T04:15:23.453Z,1003.46
2022-11-20T04:16:23.463Z,1003.45
2022-11-20T04:17:23.434Z,1003.44
2022-11-20T04:18:23.422Z,1003.43
2022-11-20T04:19:23.604Z,1003.42
2022-11-20T04:20:23.407Z,1003.40
2022-11-20T04:21:23.399Z,1003.38
2022-11-20T04:22:23.421Z,1003.39
2022-11-20T04:23:28.419Z,1003.40
2022-11-20T04:24:23.390Z,1003.38
2022-11-20T04:25:23.353Z,1003.37
2022-11-20T04:26:23.368Z,1003.36
2022-11-20T04:27:23.319Z,1003.34
2022-11-20T04:28:23.318Z,1003.32
2022-11-20T04:29:23.704Z,1003.36
2022-11-20T04:30:23.318Z,1003.39
2022-11-20T04:31:23.313Z,1003.38
2022-11-20T04:32:23.289Z,1003.35
2022-11-20T04:33:23.290Z,1003.34
2022-11-20T04:34:23.273Z,1003.35
2022-11-20T04:35:23.298Z,1003.38
2022-11-20T04:36:23.239Z,1003.40
2022-11-20T04:37:23.253Z,1003.36
2022-11-20T04:38:23.233Z,1003.36
2022-11-20T04:39:23.493Z,1003.37
2022-11-20T04:40:23.211Z,1003.36
2022-11-20T04:41:23.206Z,1003.32
2022-11-20T04:42:23.177Z,1003.33
2022-11-20T04:43:23.172Z,1003.30
2022-11-20T04:44:23.155Z,1003.25
2022-11-20T04:45:23.160Z,1003.29
2022-11-20T04:46:23.175Z,1003.35
2022-11-20T04:47:23.115Z,1003.37
2022-11-20T04:48:23.111Z,1003.36
2022-11-20T04:49:23.369Z,1003.36
2022-11-20T04:50:23.093Z,1003.38
2022-11-20T04:51:23.089Z,1003.38
2022-11-20T04:52:23.095Z,1003.39
2022-11-20T04:53:23.096Z,1003.38
2022-11-20T04:54:23.053Z,1003.37
2022-11-20T04:55:23.051Z,1003.33
2022-11-20T04:56:23.041Z,1003.36
2022-11-20T04:57:23.018Z,1003.32
2022-11-20T04:58:23.019Z,1003.36
2022-11-20T04:59:23.409Z,1003.37
2022-11-20T05:00:23.001Z,1003.33
2022-11-20T05:01:23.094Z,1003.34
2022-11-20T05:02:22.991Z,1003.35
2022-11-20T05:03:22.971Z,1003.34
2022-11-20T05:04:22.996Z,1003.32
2022-11-20T05:05:22.947Z,1003.32
2022-11-20T05:06:22.947Z,1003.35
2022-11-20T05:07:22.966Z,1003.36
2022-11-20T05:08:22.903Z,1003.35
2022-11-20T05:09:23.221Z,1003.34
2022-11-20T05:10:22.892Z,1003.35
2022-11-20T05:11:22.900Z,1003.35
2022-11-20T05:12:22.903Z,1003.39
2022-11-20T05:13:22.870Z,1003.33
2022-11-20T05:14:22.841Z,1003.33
2022-11-20T05:15:22.843Z,1003.39
2022-11-20T05:16:22.840Z,1003.38
2022-11-20T05:17:22.840Z,1003.33
2022-11-20T05:18:22.811Z,1003.36
2022-11-20T05:19:23.116Z,1003.36
2022-11-20T05:20:22.788Z,1003.35
2022-11-20T05:21:22.789Z,1003.36
2022-11-20T05:22:22.792Z,1003.37
2022-11-20T05:23:22.774Z,1003.38
2022-11-20T05:24:22.736Z,1003.36
2022-11-20T05:25:22.729Z,1003.32
2022-11-20T05:26:22.756Z,1003.31
2022-11-20T05:27:22.730Z,1003.29
2022-11-20T05:28:22.723Z,1003.29
2022-11-20T05:29:22.927Z,1003.26
2022-11-20T05:30:22.689Z,1003.28
2022-11-20T05:31:27.144Z,1003.26
2022-11-20T05:32:22.681Z,1003.24
2022-11-20T05:33:22.673Z,1003.24
2022-11-20T05:34:22.641Z,1003.24
2022-11-20T05:35:22.666Z,1003.28
2022-11-20T05:36:22.624Z,1003.25
2022-11-20T05:37:22.617Z,1003.23
2022-11-20T05:38:22.635Z,1003.25
2022-11-20T05:39:22.902Z,1003.30
2022-11-20T05:40:22.609Z,1003.33
2022-11-20T05:41:22.604Z,1003.26
2022-11-20T05:42:22.561Z,1003.33
2022-11-20T05:43:22.573Z,1003.29
2022-11-20T05:44:22.573Z,1003.31
2022-11-20T05:45:22.550Z,1003.28
2022-11-20T05:46:27.913Z,1003.31
2022-11-20T05:47:22.527Z,1003.30
2022-11-20T05:48:22.500Z,1003.33
2022-11-20T05:49:22.713Z,1003.30
2022-11-20T05:50:22.480Z,1003.33
2022-11-20T05:51:22.502Z,1003.31
2022-11-20T05:52:22.480Z,1003.32
2022-11-20T05:53:22.472Z,1003.31
2022-11-20T05:54:22.453Z,1003.33
2022-11-20T05:55:22.435Z,1003.35
2022-11-20T05:56:22.447Z,1003.37
2022-11-20T05:57:22.421Z,1003.35
2022-11-20T05:58:22.400Z,1003.41
2022-11-20T05:59:22.694Z,1003.39
2022-11-20T06:00:22.404Z,1003.44
2022-11-20T06:01:22.374Z,1003.39
2022-11-20T06:02:22.473Z,1003.44
2022-11-20T06:03:22.374Z,1003.43
2022-11-20T06:04:22.353Z,1003.40
2022-11-20T06:05:22.342Z,1003.45
2022-11-20T06:06:22.357Z,1003.43
2022-11-20T06:07:22.364Z,1003.43
2022-11-20T06:08:22.321Z,1003.45
2022-11-20T06:09:22.630Z,1003.48
2022-11-20T06:10:22.285Z,1003.52
2022-11-20T06:11:22.295Z,1003.46
2022-11-20T06:12:22.285Z,1003.45
2022-11-20T06:13:22.267Z,1003.47
2022-11-20T06:14:22.892Z,1003.52
2022-11-20T06:15:22.228Z,1003.50
2022-11-20T06:16:22.218Z,1003.46
2022-11-20T06:17:22.236Z,1003.48
2022-11-20T06:18:22.217Z,1003.50
2022-11-20T06:19:22.511Z,1003.50
2022-11-20T06:20:22.186Z,1003.48
2022-11-20T06:21:22.191Z,1003.45
2022-11-20T06:22:22.170Z,1003.45
2022-11-20T06:23:22.166Z,1003.45
2022-11-20T06:24:22.150Z,1003.49
2022-11-20T06:25:22.170Z,1003.47
2022-11-20T06:26:22.117Z,1003.49
2022-11-20T06:27:22.110Z,1003.48
2022-11-20T06:28:22.106Z,1003.48
2022-11-20T06:29:22.327Z,1003.47
2022-11-20T06:30:22.100Z,1003.43
2022-11-20T06:31:22.093Z,1003.43
2022-11-20T06:32:22.071Z,1003.41
2022-11-20T06:33:22.066Z,1003.38
2022-11-20T06:34:22.036Z,1003.36
2022-11-20T06:35:22.044Z,1003.43
2022-11-20T06:36:22.070Z,1003.45
2022-11-20T06:37:22.045Z,1003.45
2022-11-20T06:38:22.033Z,1003.42
2022-11-20T06:39:22.406Z,1003.45
2022-11-20T06:40:21.985Z,1003.45
2022-11-20T06:41:22.008Z,1003.48
2022-11-20T06:42:21.961Z,1003.49
2022-11-20T06:43:21.961Z,1003.50
2022-11-20T06:44:21.967Z,1003.50
2022-11-20T06:45:21.961Z,1003.42
2022-11-20T06:46:21.950Z,1003.43
2022-11-20T06:47:21.912Z,1003.46
2022-11-20T06:48:21.936Z,1003.52
2022-11-20T06:49:22.111Z,1003.49
2022-11-20T06:50:21.901Z,1003.50
2022-11-20T06:51:21.890Z,1003.52
2022-11-20T06:52:21.887Z,1003.51
2022-11-20T06:53:21.864Z,1003.52
2022-11-20T06:54:21.866Z,1003.56
2022-11-20T06:55:21.870Z,1003.62
2022-11-20T06:56:21.826Z,1003.63
2022-11-20T06:57:21.832Z,1003.62
2022-11-20T06:58:21.797Z,1003.67
2022-11-20T06:59:22.092Z,1003.68
2022-11-20T07:00:21.797Z,1003.66
2022-11-20T07:01:21.845Z,1003.69
2022-11-20T07:02:21.792Z,1003.71
2022-11-20T07:03:21.781Z,1003.70
2022-11-20T07:04:21.740Z,1003.73
2022-11-20T07:05:21.741Z,1003.72
2022-11-20T07:06:21.745Z,1003.73
2022-11-20T07:07:21.759Z,1003.66
2022-11-20T07:08:21.704Z,1003.72
2022-11-20T07:09:21.696Z,1003.71
2022-11-20T07:10:21.714Z,1003.71
2022-11-20T07:11:21.676Z,1003.75
2022-11-20T07:12:21.671Z,1003.76
2022-11-20T07:13:21.675Z,1003.74
2022-11-20T07:14:21.646Z,1003.80
2022-11-20T07:15:21.635Z,1003.78
2022-11-20T07:16:21.646Z,1003.78
2022-11-20T07:17:21.610Z,1003.82
2022-11-20T07:18:21.609Z,1003.82
2022-11-20T07:19:21.888Z,1003.85
2022-11-20T07:20:21.590Z,1003.84
2022-11-20T07:21:21.597Z,1003.88
2022-11-20T07:22:21.574Z,1003.84
2022-11-20T07:23:21.576Z,1003.85
2022-11-20T07:24:21.572Z,1003.88
2022-11-20T07:25:21.563Z,1003.86
2022-11-20T07:26:21.541Z,1003.86
2022-11-20T07:27:21.548Z,1003.84
2022-11-20T07:28:21.510Z,1003.82
2022-11-20T07:29:21.752Z,1003.86
2022-11-20T07:30:21.529Z,1003.87
2022-11-20T07:31:21.495Z,1003.85
2022-11-20T07:32:21.502Z,1003.89
2022-11-20T07:33:21.489Z,1003.86
2022-11-20T07:34:21.459Z,1003.90
2022-11-20T07:35:21.448Z,1003.94
2022-11-20T07:36:21.454Z,1003.93
2022-11-20T07:37:21.443Z,1003.93
2022-11-20T07:38:21.426Z,1003.93
2022-11-20T07:39:21.754Z,1003.97
2022-11-20T07:40:21.423Z,1003.98
2022-11-20T07:41:21.435Z,1004.00
2022-11-20T07:42:21.413Z,1003.98
2022-11-20T07:43:21.373Z,1003.95
2022-11-20T07:44:21.350Z,1003.96
2022-11-20T07:45:21.386Z,1003.94
2022-11-20T07:46:21.347Z,1003.95
2022-11-20T07:47:21.333Z,1003.95
2022-11-20T07:48:21.337Z,1003.92
2022-11-20T07:49:21.789Z,1003.93
2022-11-20T07:50:21.312Z,1003.88
2022-11-20T07:51:21.330Z,1003.87
2022-11-20T07:52:21.299Z,1003.87
2022-11-20T07:53:21.264Z,1003.89
2022-11-20T07:54:21.287Z,1003.82
2022-11-20T07:55:21.298Z,1003.89
2022-11-20T07:56:21.267Z,1003.88
2022-11-20T07:57:25.542Z,1003.93
2022-11-20T07:58:21.216Z,1003.97
2022-11-20T07:59:21.527Z,1003.92
2022-11-20T08:00:21.214Z,1003.94
2022-11-20T08:01:21.293Z,1003.92
2022-11-20T08:02:21.220Z,1003.91
2022-11-20T08:03:24.913Z,1003.93
2022-11-20T08:04:21.164Z,1003.98
2022-11-20T08:05:21.138Z,1003.98
2022-11-20T08:06:21.143Z,1003.98
2022-11-20T08:07:21.178Z,1003.93
2022-11-20T08:08:21.114Z,1003.93
2022-11-20T08:09:21.318Z,1003.90
2022-11-20T08:10:21.112Z,1003.90
2022-11-20T08:11:21.106Z,1003.94
2022-11-20T08:12:21.095Z,1003.91
2022-11-20T08:13:21.070Z,1003.94
2022-11-20T08:14:21.049Z,1003.95
2022-11-20T08:15:21.061Z,1003.97
2022-11-20T08:16:21.050Z,1003.93
2022-11-20T08:17:21.043Z,1003.89
2022-11-20T08:18:31.341Z,1003.86
2022-11-20T08:19:21.357Z,1003.88
2022-11-20T08:20:21.009Z,1003.90
2022-11-20T08:21:20.988Z,1003.93
2022-11-20T08:22:20.999Z,1003.89
2022-11-20T08:23:21.055Z,1003.93
2022-11-20T08:24:20.975Z,1003.90
2022-11-20T08:25:20.974Z,1003.93
2022-11-20T08:26:20.983Z,1003.98
2022-11-20T08:27:20.949Z,1004.02
2022-11-20T08:28:22.245Z,1004.01
2022-11-20T08:29:21.225Z,1004.03
2022-11-20T08:30:20.920Z,1003.96
2022-11-20T08:31:20.893Z,1003.99
2022-11-20T08:32:20.864Z,1003.99
2022-11-20T08:33:20.860Z,1003.96
2022-11-20T08:34:20.862Z,1003.97
2022-11-20T08:35:20.846Z,1003.97
2022-11-20T08:36:20.828Z,1003.95
2022-11-20T08:37:20.835Z,1004.03
2022-11-20T08:38:20.854Z,1003.98
2022-11-20T08:39:21.151Z,1004.03
2022-11-20T08:40:20.801Z,1004.02
2022-11-20T08:41:20.803Z,1003.99
2022-11-20T08:42:20.780Z,1004.02
2022-11-20T08:43:20.789Z,1003.98
2022-11-20T08:44:20.750Z,1004.03
2022-11-20T08:45:20.762Z,1003.99
2022-11-20T08:46:20.781Z,1004.03
2022-11-20T08:47:20.734Z,1003.97
2022-11-20T08:48:20.739Z,1003.95
2022-11-20T08:49:21.016Z,1003.93
2022-11-20T08:50:20.701Z,1003.95
2022-11-20T08:51:20.723Z,1003.97
2022-11-20T08:52:20.685Z,1003.94
2022-11-20T08:53:20.743Z,1004.02
2022-11-20T08:54:20.672Z,1004.01
2022-11-20T08:55:20.686Z,1003.98
2022-11-20T08:56:20.679Z,1004.03
2022-11-20T08:57:20.672Z,1004.01
2022-11-20T08:58:20.664Z,1004.00
2022-11-20T08:59:43.413Z,1004.06
2022-11-20T09:00:20.627Z,1004.03
2022-11-20T09:01:20.622Z,1004.02
2022-11-20T09:02:20.588Z,1004.03
2022-11-20T09:03:20.617Z,1004.05
2022-11-20T09:04:20.582Z,1004.05
2022-11-20T09:05:20.600Z,1004.00
2022-11-20T09:06:20.566Z,1004.02
2022-11-20T09:07:20.595Z,1003.98
2022-11-20T09:08:20.549Z,1003.96
2022-11-20T09:09:21.020Z,1003.97
2022-11-20T09:10:28.067Z,1003.94
2022-11-20T09:11:20.550Z,1003.94
2022-11-20T09:12:20.505Z,1003.94
2022-11-20T09:13:20.503Z,1003.90
2022-11-20T09:14:20.477Z,1003.90
2022-11-20T09:15:20.505Z,1003.93
2022-11-20T09:16:20.486Z,1003.95
2022-11-20T09:17:20.483Z,1003.92
2022-11-20T09:18:20.449Z,1003.87
2022-11-20T09:19:35.008Z,1003.91
2022-11-20T09:20:20.417Z,1003.90
2022-11-20T09:21:20.522Z,1003.89
2022-11-20T09:22:20.412Z,1003.88
2022-11-20T09:23:20.393Z,1003.86
2022-11-20T09:24:20.417Z,1003.89
2022-11-20T09:25:20.385Z,1003.89
2022-11-20T09:26:20.371Z,1003.92
2022-11-20T09:27:20.382Z,1003.91
2022-11-20T09:28:20.370Z,1003.97
2022-11-20T09:29:20.716Z,1003.92
2022-11-20T09:30:20.391Z,1003.95
2022-11-20T09:31:20.313Z,1003.95
2022-11-20T09:32:20.337Z,1003.95
2022-11-20T09:33:20.329Z,1003.93
2022-11-20T09:34:20.338Z,1003.91
2022-11-20T09:35:20.293Z,1003.89
2022-11-20T09:36:20.305Z,1003.91
2022-11-20T09:37:20.267Z,1003.90
2022-11-20T09:38:20.253Z,1003.91
2022-11-20T09:39:20.419Z,1003.91
2022-11-20T09:40:20.326Z,1003.90
2022-11-20T09:41:20.276Z,1003.83
2022-11-20T09:42:20.261Z,1003.83
2022-11-20T09:43:20.204Z,1003.74
2022-11-20T09:44:20.200Z,1003.75
2022-11-20T09:45:20.201Z,1003.75
2022-11-20T09:46:20.209Z,1003.75
2022-11-20T09:47:20.178Z,1003.75
2022-11-20T09:48:20.167Z,1003.72
2022-11-20T09:49:20.445Z,1003.73
2022-11-20T09:50:20.167Z,1003.75
2022-11-20T09:51:20.136Z,1003.72
2022-11-20T09:52:20.129Z,1003.73
2022-11-20T09:53:20.116Z,1003.72
2022-11-20T09:54:20.169Z,1003.74
2022-11-20T09:55:20.118Z,1003.74
2022-11-20T09:56:22.487Z,1003.70
2022-11-20T09:57:20.090Z,1003.72
2022-11-20T09:58:20.092Z,1003.76
2022-11-20T09:59:20.320Z,1003.81
2022-11-20T10:00:20.085Z,1003.70
2022-11-20T10:01:20.509Z,1003.71
2022-11-20T10:02:20.086Z,1003.70
2022-11-20T10:03:20.031Z,1003.71
2022-11-20T10:04:20.234Z,1003.73
2022-11-20T10:05:20.436Z,1003.78
2022-11-20T10:06:20.038Z,1003.72
2022-11-20T10:07:35.508Z,1003.72
2022-11-20T10:08:20.055Z,1003.71
2022-11-20T10:09:20.330Z,1003.73
2022-11-20T10:10:20.166Z,1003.83
2022-11-20T10:11:20.134Z,1003.77
2022-11-20T10:12:19.989Z,1003.75
2022-11-20T10:13:19.962Z,1003.79
2022-11-20T10:14:19.964Z,1003.76
2022-11-20T10:15:19.985Z,1003.78
2022-11-20T10:16:19.925Z,1003.75
2022-11-20T10:17:19.996Z,1003.72
2022-11-20T10:18:19.947Z,1003.66
2022-11-20T10:19:20.159Z,1003.64
2022-11-20T10:20:19.938Z,1003.68
2022-11-20T10:21:19.952Z,1003.67
2022-11-20T10:22:19.908Z,1003.63
2022-11-20T10:23:25.394Z,1003.61
2022-11-20T10:24:19.855Z,1003.64
2022-11-20T10:25:19.881Z,1003.55
2022-11-20T10:26:19.852Z,1003.56
2022-11-20T10:27:19.876Z,1003.52
2022-11-20T10:28:19.834Z,1003.47
2022-11-20T10:29:19.854Z,1003.47
2022-11-20T10:30:19.810Z,1003.42
2022-11-20T10:31:19.943Z,1003.38
2022-11-20T10:32:19.822Z,1003.41
2022-11-20T10:33:19.817Z,1003.36
2022-11-20T10:34:22.882Z,1003.33
2022-11-20T10:35:19.805Z,1003.28
2022-11-20T10:36:19.809Z,1003.26
2022-11-20T10:37:19.772Z,1003.24
2022-11-20T10:38:19.766Z,1003.28
2022-11-20T10:39:20.049Z,1003.25
2022-11-20T10:40:19.758Z,1003.19
2022-11-20T10:41:19.806Z,1003.20
2022-11-20T10:42:19.716Z,1003.19
2022-11-20T10:43:19.756Z,1003.20
2022-11-20T10:44:20.031Z,1003.20
2022-11-20T10:45:19.729Z,1003.22
2022-11-20T10:46:19.685Z,1003.19
2022-11-20T10:47:19.783Z,1003.18
2022-11-20T10:48:19.671Z,1003.13
2022-11-20T10:49:19.933Z,1003.14
2022-11-20T10:50:22.555Z,1003.08
2022-11-20T10:51:19.721Z,1003.04
2022-11-20T10:52:19.660Z,1003.04
2022-11-20T10:53:19.678Z,1003.03
2022-11-20T10:54:19.631Z,1003.04
2022-11-20T10:55:19.628Z,1003.04
2022-11-20T10:56:19.627Z,1003.02
2022-11-20T10:57:19.593Z,1002.99
2022-11-20T10:58:19.578Z,1002.97
2022-11-20T10:59:20.065Z,1002.98
2022-11-20T11:00:19.600Z,1003.00
2022-11-20T11:01:19.682Z,1002.97
2022-11-20T11:02:19.537Z,1003.01
2022-11-20T11:03:19.536Z,1002.99
2022-11-20T11:04:19.578Z,1002.98
2022-11-20T11:05:19.519Z,1002.92
2022-11-20T11:06:19.508Z,1002.91
2022-11-20T11:07:19.534Z,1002.94
2022-11-20T11:08:19.524Z,1002.88
2022-11-20T11:09:20.015Z,1002.85
2022-11-20T11:10:19.467Z,1002.90
2022-11-20T11:11:19.529Z,1002.86
2022-11-20T11:12:19.460Z,1002.83
2022-11-20T11:13:19.453Z,1002.80
2022-11-20T11:14:19.468Z,1002.77
2022-11-20T11:15:19.428Z,1002.73
2022-11-20T11:16:19.470Z,1002.74
2022-11-20T11:17:19.414Z,1002.72
2022-11-20T11:18:19.399Z,1002.76
2022-11-20T11:19:19.391Z,1002.78
2022-11-20T11:20:19.393Z,1002.79
2022-11-20T11:21:19.462Z,1002.75
2022-11-20T11:22:19.391Z,1002.73
2022-11-20T11:23:19.350Z,1002.70
2022-11-20T11:24:41.195Z,1002.67
2022-11-20T11:25:19.357Z,1002.68
2022-11-20T11:26:19.377Z,1002.65
2022-11-20T11:27:19.393Z,1002.61
2022-11-20T11:28:19.344Z,1002.61
2022-11-20T11:29:19.350Z,1002.60
2022-11-20T11:30:19.298Z,1002.58
2022-11-20T11:31:19.291Z,1002.59
2022-11-20T11:32:19.275Z,1002.60
2022-11-20T11:33:19.294Z,1002.55
2022-11-20T11:34:19.284Z,1002.50
2022-11-20T11:35:19.253Z,1002.49
2022-11-20T11:36:19.290Z,1002.47
2022-11-20T11:37:19.236Z,1002.42
2022-11-20T11:38:19.269Z,1002.40
2022-11-20T11:39:19.262Z,1002.41
2022-11-20T11:40:26.421Z,1002.38
2022-11-20T11:41:19.216Z,1002.35
2022-11-20T11:42:19.189Z,1002.38
2022-11-20T11:43:19.183Z,1002.35
2022-11-20T11:44:19.187Z,1002.37
2022-11-20T11:45:19.166Z,1002.35
2022-11-20T11:46:19.161Z,1002.30
2022-11-20T11:47:19.171Z,1002.33
2022-11-20T11:48:19.175Z,1002.28
2022-11-20T11:49:19.157Z,1002.29
2022-11-20T11:50:19.133Z,1002.28
2022-11-20T11:51:19.166Z,1002.29
2022-11-20T11:52:19.131Z,1002.29
2022-11-20T11:53:19.109Z,1002.28
2022-11-20T11:54:19.201Z,1002.24
2022-11-20T11:55:19.081Z,1002.23
2022-11-20T11:56:19.093Z,1002.21
2022-11-20T11:57:19.082Z,1002.20
2022-11-20T11:58:19.067Z,1002.17
2022-11-20T11:59:19.085Z,1002.22
2022-11-20T12:00:19.051Z,1002.22
2022-11-20T12:01:19.035Z,1002.19
2022-11-20T12:02:19.038Z,1002.19
2022-11-20T12:03:19.029Z,1002.19
2022-11-20T12:04:19.022Z,1002.16
2022-11-20T12:05:19.024Z,1002.12